シカゴ/オヘア の空港の天気 - METARとTAF

シカゴ・オヘア国際空港 ( KORD / ORD ) - アメリカ イリノイ州シカゴ
飛行場実況気象(Metar)
観測時間04/26 05:51 CDT (04/26 10:51 UTC)
風向・風速西北西 2m/s
視程10km以上
天気現象
少しの雲 雲底高度 7620m
気温2.2℃
湿度75%
気圧1014.6hPa
METARKORD 261051Z 29003KT 10SM FEW250 02/M02 A2995 RMK AO2 SLP146 T00221017
過去の天気等 Google飛行場航空写真 Wunderground天気予報

過去48時間のMETAR

飛行場予報(TAF)
発表時間: 4/26 03:52 CDT (4/26 08:52 UTC)
予報対象時間: 26日4時 CDT ~ 27日7時 CDT
風向・風速西 2m/s
視程10km以上
なし
26日8時 CDT から
風向・風速南西 3m/s
視程10km以上
少しの雲 雲底高度 7,620m
26日13時 CDT から
風向・風速南西 5m/s
視程10km以上
少しの雲 雲底高度 1,520m
全天の8割程度の雲 雲底高度 7,620m
27日1時 CDT から
風向・風速北北西 8m/s 瞬間風速 11m/s
視程10km以上
全天の8割程度の雲 雲底高度 610m
全天を覆う雲 雲底高度 1,520m
KORD 260852Z 2609/2712 28004KT P6SM SKC
FM261300 22005KT P6SM FEW250
FM261800 23009KT P6SM FEW050 BKN250
FM270600 34015G22KT P6SM BKN020 OVC050